createdAt,value
2022-11-02T00:00:41.716Z,0
2022-11-02T00:01:41.812Z,0
2022-11-02T00:02:41.759Z,0
2022-11-02T00:03:41.749Z,0
2022-11-02T00:04:41.764Z,0
2022-11-02T00:05:41.750Z,0
2022-11-02T00:06:41.767Z,0
2022-11-02T00:07:41.770Z,0
2022-11-02T00:08:41.800Z,0
2022-11-02T00:09:41.771Z,0
2022-11-02T00:10:41.768Z,0
2022-11-02T00:11:41.786Z,0
2022-11-02T00:12:41.783Z,0
2022-11-02T00:13:41.758Z,0
2022-11-02T00:14:41.757Z,0
2022-11-02T00:15:41.781Z,0
2022-11-02T00:16:41.795Z,0
2022-11-02T00:17:41.767Z,0
2022-11-02T00:18:41.773Z,0
2022-11-02T00:19:41.779Z,0
2022-11-02T00:20:41.794Z,0
2022-11-02T00:21:41.807Z,0
2022-11-02T00:22:41.760Z,0
2022-11-02T00:23:41.769Z,0
2022-11-02T00:24:41.779Z,0
2022-11-02T00:25:41.765Z,0
2022-11-02T00:26:41.789Z,0
2022-11-02T00:27:41.786Z,0
2022-11-02T00:28:41.780Z,0
2022-11-02T00:29:41.780Z,0
2022-11-02T00:30:41.797Z,0
2022-11-02T00:31:41.824Z,0
2022-11-02T00:32:41.801Z,0
2022-11-02T00:33:41.806Z,0
2022-11-02T00:34:41.806Z,0
2022-11-02T00:35:41.825Z,0
2022-11-02T00:36:41.872Z,0
2022-11-02T00:37:41.804Z,0
2022-11-02T00:38:41.829Z,0
2022-11-02T00:39:41.816Z,0
2022-11-02T00:40:41.830Z,0
2022-11-02T00:41:41.834Z,0
2022-11-02T00:42:41.818Z,0
2022-11-02T00:43:41.819Z,0
2022-11-02T00:44:41.832Z,0.6
2022-11-02T00:45:41.865Z,0
2022-11-02T00:46:41.849Z,0.5
2022-11-02T00:47:41.826Z,0
2022-11-02T00:48:41.843Z,0
2022-11-02T00:49:41.822Z,0.5
2022-11-02T00:50:41.826Z,0
2022-11-02T00:51:41.827Z,0
2022-11-02T00:52:41.893Z,0
2022-11-02T00:53:41.841Z,0
2022-11-02T00:54:41.862Z,0
2022-11-02T00:55:41.856Z,0.5
2022-11-02T00:56:41.873Z,0
2022-11-02T00:57:41.859Z,0
2022-11-02T00:58:41.862Z,0.6
2022-11-02T00:59:41.845Z,0
2022-11-02T01:00:41.855Z,0
2022-11-02T01:01:42.013Z,0
2022-11-02T01:02:42.003Z,0
2022-11-02T01:03:41.896Z,0
2022-11-02T01:04:41.878Z,0
2022-11-02T01:05:41.877Z,0
2022-11-02T01:06:41.881Z,0
2022-11-02T01:07:41.906Z,0
2022-11-02T01:08:41.901Z,0
2022-11-02T01:09:41.875Z,0
2022-11-02T01:10:44.043Z,0
2022-11-02T01:11:41.906Z,0
2022-11-02T01:12:41.893Z,0
2022-11-02T01:13:41.981Z,0
2022-11-02T01:14:41.929Z,0
2022-11-02T01:15:41.891Z,0
2022-11-02T01:16:41.956Z,0
2022-11-02T01:17:41.901Z,0
2022-11-02T01:18:41.914Z,0
2022-11-02T01:19:41.910Z,0
2022-11-02T01:20:41.900Z,0
2022-11-02T01:21:41.912Z,0
2022-11-02T01:22:41.901Z,0
2022-11-02T01:23:41.918Z,0
2022-11-02T01:24:41.962Z,0
2022-11-02T01:25:41.898Z,0
2022-11-02T01:26:41.912Z,0
2022-11-02T01:27:41.905Z,0
2022-11-02T01:28:41.956Z,0
2022-11-02T01:29:41.919Z,0.5
2022-11-02T01:30:41.921Z,0.5
2022-11-02T01:31:41.940Z,0
2022-11-02T01:32:41.950Z,0
2022-11-02T01:33:41.923Z,0
2022-11-02T01:34:41.936Z,0
2022-11-02T01:35:41.972Z,0
2022-11-02T01:36:41.950Z,0
2022-11-02T01:37:42.090Z,0
2022-11-02T01:38:41.937Z,0
2022-11-02T01:39:41.931Z,0
2022-11-02T01:40:41.971Z,0
2022-11-02T01:41:41.953Z,0
2022-11-02T01:42:41.947Z,1
2022-11-02T01:43:41.956Z,0.8
2022-11-02T01:44:41.937Z,0
2022-11-02T01:45:41.957Z,0.7
2022-11-02T01:46:41.953Z,0.7
2022-11-02T01:47:41.943Z,0
2022-11-02T01:48:41.977Z,0.6
2022-11-02T01:49:41.968Z,0
2022-11-02T01:50:41.951Z,0.8
2022-11-02T01:51:41.997Z,0.8
2022-11-02T01:52:41.994Z,0.7
2022-11-02T01:53:41.979Z,0.6
2022-11-02T01:54:41.984Z,0
2022-11-02T01:55:41.994Z,0.5
2022-11-02T01:56:42.047Z,0.5
2022-11-02T01:57:42.066Z,0
2022-11-02T01:58:41.996Z,0
2022-11-02T01:59:41.975Z,0
2022-11-02T02:00:42.015Z,0.7
2022-11-02T02:01:42.066Z,0
2022-11-02T02:02:42.044Z,0
2022-11-02T02:03:41.990Z,0
2022-11-02T02:04:41.987Z,0
2022-11-02T02:05:41.989Z,0
2022-11-02T02:06:42.029Z,0
2022-11-02T02:07:41.995Z,0
2022-11-02T02:08:42.010Z,0
2022-11-02T02:09:42.003Z,0
2022-11-02T02:10:42.021Z,0
2022-11-02T02:11:42.033Z,0
2022-11-02T02:12:42.070Z,0
2022-11-02T02:13:42.062Z,0
2022-11-02T02:14:42.040Z,0
2022-11-02T02:15:42.047Z,0
2022-11-02T02:16:42.139Z,0
2022-11-02T02:17:42.027Z,0
2022-11-02T02:18:42.056Z,0
2022-11-02T02:19:42.047Z,0
2022-11-02T02:20:42.068Z,0
2022-11-02T02:21:42.251Z,0
2022-11-02T02:22:42.034Z,0
2022-11-02T02:23:42.071Z,0
2022-11-02T02:24:42.037Z,0
2022-11-02T02:25:42.046Z,0
2022-11-02T02:26:42.048Z,0
2022-11-02T02:27:42.051Z,0
2022-11-02T02:28:42.087Z,0
2022-11-02T02:29:42.260Z,0
2022-11-02T02:30:42.086Z,0
2022-11-02T02:31:42.080Z,0
2022-11-02T02:32:42.090Z,0
2022-11-02T02:33:42.081Z,0
2022-11-02T02:34:42.087Z,0
2022-11-02T02:35:42.078Z,0
2022-11-02T02:36:42.162Z,0
2022-11-02T02:37:42.079Z,0
2022-11-02T02:38:42.099Z,0
2022-11-02T02:39:42.092Z,0
2022-11-02T02:40:42.118Z,0
2022-11-02T02:41:42.099Z,0
2022-11-02T02:42:42.105Z,0
2022-11-02T02:43:42.109Z,0
2022-11-02T02:44:42.131Z,0
2022-11-02T02:45:42.099Z,0
2022-11-02T02:46:42.694Z,0
2022-11-02T02:47:42.106Z,0
2022-11-02T02:48:42.124Z,0
2022-11-02T02:49:42.129Z,0
2022-11-02T02:50:42.141Z,0
2022-11-02T02:51:42.143Z,0
2022-11-02T02:52:42.167Z,0
2022-11-02T02:53:42.140Z,0
2022-11-02T02:54:42.137Z,0
2022-11-02T02:55:42.161Z,0
2022-11-02T02:56:42.198Z,0
2022-11-02T02:57:42.177Z,0
2022-11-02T02:58:42.151Z,0
2022-11-02T02:59:42.155Z,0.5
2022-11-02T03:00:42.176Z,0
2022-11-02T03:01:42.222Z,0
2022-11-02T03:02:42.193Z,0
2022-11-02T03:03:42.156Z,0
2022-11-02T03:04:42.160Z,0
2022-11-02T03:05:42.156Z,0.5
2022-11-02T03:06:42.164Z,0
2022-11-02T03:07:42.182Z,0
2022-11-02T03:08:42.157Z,0
2022-11-02T03:09:42.169Z,0.6
2022-11-02T03:10:42.162Z,0.7
2022-11-02T03:11:42.189Z,0.6
2022-11-02T03:12:42.176Z,0
2022-11-02T03:13:42.212Z,0.5
2022-11-02T03:14:42.165Z,0
2022-11-02T03:15:42.179Z,0
2022-11-02T03:16:42.211Z,0
2022-11-02T03:17:42.175Z,0.5
2022-11-02T03:18:42.180Z,0.8
2022-11-02T03:19:42.223Z,0.7
2022-11-02T03:20:42.392Z,0.9
2022-11-02T03:21:42.212Z,0.6
2022-11-02T03:22:42.195Z,0.5
2022-11-02T03:23:42.230Z,0.6
2022-11-02T03:24:42.221Z,0.8
2022-11-02T03:25:42.197Z,0
2022-11-02T03:26:42.330Z,0
2022-11-02T03:27:42.235Z,0
2022-11-02T03:28:42.218Z,0.6
2022-11-02T03:29:42.217Z,0
2022-11-02T03:30:42.219Z,0.7
2022-11-02T03:31:42.232Z,0.7
2022-11-02T03:32:42.246Z,1
2022-11-02T03:33:42.234Z,0
2022-11-02T03:34:42.222Z,1
2022-11-02T03:35:42.213Z,0.5
2022-11-02T03:36:42.235Z,1
2022-11-02T03:37:42.255Z,0
2022-11-02T03:38:42.306Z,0
2022-11-02T03:39:42.257Z,0
2022-11-02T03:40:42.267Z,0
2022-11-02T03:41:42.254Z,0
2022-11-02T03:42:42.232Z,0
2022-11-02T03:43:42.242Z,0
2022-11-02T03:44:42.237Z,0
2022-11-02T03:45:42.243Z,0
2022-11-02T03:46:42.254Z,0
2022-11-02T03:47:42.249Z,0
2022-11-02T03:48:42.285Z,0
2022-11-02T03:49:42.271Z,0
2022-11-02T03:50:42.264Z,0
2022-11-02T03:51:42.272Z,0
2022-11-02T03:52:42.293Z,0
2022-11-02T03:53:42.277Z,0
2022-11-02T03:54:42.274Z,0
2022-11-02T03:55:42.279Z,0
2022-11-02T03:56:42.295Z,0
2022-11-02T03:57:42.277Z,0
2022-11-02T03:58:42.271Z,0
2022-11-02T03:59:42.281Z,0
2022-11-02T04:00:42.277Z,0
2022-11-02T04:01:42.379Z,0
2022-11-02T04:02:42.343Z,0
2022-11-02T04:03:42.312Z,0
2022-11-02T04:04:42.332Z,0
2022-11-02T04:05:42.306Z,0
2022-11-02T04:06:42.307Z,0
2022-11-02T04:07:42.301Z,0
2022-11-02T04:08:42.320Z,0.5
2022-11-02T04:09:42.313Z,0
2022-11-02T04:10:42.302Z,0
2022-11-02T04:11:42.373Z,0
2022-11-02T04:12:42.355Z,0
2022-11-02T04:13:42.326Z,0
2022-11-02T04:14:42.332Z,0
2022-11-02T04:15:42.325Z,0
2022-11-02T04:16:42.333Z,0
2022-11-02T04:17:42.447Z,0
2022-11-02T04:18:42.403Z,0
2022-11-02T04:19:44.188Z,0
2022-11-02T04:20:42.368Z,0
2022-11-02T04:21:42.362Z,0
2022-11-02T04:22:42.340Z,0
2022-11-02T04:23:42.345Z,0.5
2022-11-02T04:24:42.355Z,0
2022-11-02T04:25:42.371Z,0
2022-11-02T04:26:42.381Z,0
2022-11-02T04:27:42.371Z,0
2022-11-02T04:28:42.388Z,0
2022-11-02T04:29:42.376Z,0
2022-11-02T04:30:42.370Z,0
2022-11-02T04:31:42.399Z,0
2022-11-02T04:32:42.384Z,0
2022-11-02T04:33:42.404Z,0
2022-11-02T04:34:42.389Z,0
2022-11-02T04:35:42.441Z,0
2022-11-02T04:36:42.445Z,0
2022-11-02T04:37:42.391Z,0
2022-11-02T04:38:42.448Z,0
2022-11-02T04:39:42.398Z,0.7
2022-11-02T04:40:42.411Z,0.6
2022-11-02T04:41:42.434Z,0
2022-11-02T04:42:42.427Z,0
2022-11-02T04:43:42.406Z,0
2022-11-02T04:44:42.446Z,0
2022-11-02T04:45:42.418Z,0
2022-11-02T04:46:42.435Z,0
2022-11-02T04:47:42.424Z,0
2022-11-02T04:48:42.413Z,0
2022-11-02T04:49:42.440Z,0
2022-11-02T04:50:42.441Z,0
2022-11-02T04:51:45.775Z,0
2022-11-02T04:52:42.471Z,0
2022-11-02T04:53:42.462Z,0
2022-11-02T04:54:42.446Z,0
2022-11-02T04:55:42.438Z,0
2022-11-02T04:56:42.450Z,0
2022-11-02T04:57:42.504Z,0
2022-11-02T04:58:42.456Z,0
2022-11-02T04:59:42.456Z,0
2022-11-02T05:00:42.488Z,0
2022-11-02T05:01:42.590Z,0
2022-11-02T05:02:42.578Z,0
2022-11-02T05:03:42.469Z,0
2022-11-02T05:04:42.480Z,0.5
2022-11-02T05:05:42.482Z,0.5
2022-11-02T05:06:42.491Z,0
2022-11-02T05:07:42.486Z,0
2022-11-02T05:08:42.518Z,0
2022-11-02T05:09:42.523Z,0
2022-11-02T05:10:42.495Z,0
2022-11-02T05:11:42.503Z,0
2022-11-02T05:12:42.525Z,0
2022-11-02T05:13:42.539Z,0
2022-11-02T05:14:42.519Z,0
2022-11-02T05:15:42.536Z,0
2022-11-02T05:16:42.522Z,0
2022-11-02T05:17:42.529Z,0
2022-11-02T05:18:42.538Z,0
2022-11-02T05:19:42.518Z,0
2022-11-02T05:20:42.511Z,0
2022-11-02T05:21:42.538Z,0
2022-11-02T05:22:42.537Z,0
2022-11-02T05:23:42.530Z,0
2022-11-02T05:24:42.558Z,0
2022-11-02T05:25:42.526Z,0
2022-11-02T05:26:42.551Z,0
2022-11-02T05:27:42.544Z,0
2022-11-02T05:28:42.539Z,0
2022-11-02T05:29:42.548Z,0
2022-11-02T05:30:42.600Z,0
2022-11-02T05:31:42.570Z,0
2022-11-02T05:32:42.589Z,0
2022-11-02T05:33:42.562Z,0
2022-11-02T05:34:42.564Z,0
2022-11-02T05:35:42.575Z,0
2022-11-02T05:36:42.564Z,0
2022-11-02T05:37:42.579Z,0.5
2022-11-02T05:38:42.587Z,0.6
2022-11-02T05:39:44.007Z,0
2022-11-02T05:40:42.612Z,0
2022-11-02T05:41:42.580Z,0
2022-11-02T05:42:42.567Z,0
2022-11-02T05:43:42.567Z,0
2022-11-02T05:44:42.616Z,0
2022-11-02T05:45:42.613Z,0
2022-11-02T05:46:42.607Z,0
2022-11-02T05:47:42.601Z,0.5
2022-11-02T05:48:42.599Z,0
2022-11-02T05:49:42.587Z,0
2022-11-02T05:50:42.591Z,0
2022-11-02T05:51:42.613Z,0
2022-11-02T05:52:42.608Z,0
2022-11-02T05:53:42.623Z,0
2022-11-02T05:54:42.615Z,0
2022-11-02T05:55:42.602Z,0
2022-11-02T05:56:42.647Z,0.6
2022-11-02T05:57:42.609Z,0
2022-11-02T05:58:42.667Z,0
2022-11-02T05:59:43.817Z,0
2022-11-02T06:00:42.739Z,0
2022-11-02T06:01:42.766Z,0.8
2022-11-02T06:02:42.624Z,0
2022-11-02T06:03:42.634Z,0
2022-11-02T06:04:42.635Z,0
2022-11-02T06:05:42.712Z,0
2022-11-02T06:06:42.665Z,0
2022-11-02T06:07:42.652Z,0
2022-11-02T06:08:42.643Z,0
2022-11-02T06:09:42.643Z,0
2022-11-02T06:10:42.647Z,0
2022-11-02T06:11:42.675Z,0
2022-11-02T06:12:42.703Z,0
2022-11-02T06:13:42.691Z,0
2022-11-02T06:14:42.691Z,0.5
2022-11-02T06:15:42.659Z,0
2022-11-02T06:16:42.674Z,0
2022-11-02T06:17:42.705Z,0
2022-11-02T06:18:42.665Z,0
2022-11-02T06:19:42.668Z,0
2022-11-02T06:20:42.685Z,0
2022-11-02T06:21:44.435Z,0
2022-11-02T06:22:42.710Z,0
2022-11-02T06:23:42.688Z,0
2022-11-02T06:24:42.727Z,0
2022-11-02T06:25:42.691Z,0
2022-11-02T06:26:42.720Z,0
2022-11-02T06:27:44.993Z,0
2022-11-02T06:28:42.747Z,0
2022-11-02T06:29:42.723Z,0
2022-11-02T06:30:42.730Z,0.7
2022-11-02T06:31:42.761Z,0
2022-11-02T06:32:42.739Z,0
2022-11-02T06:33:42.720Z,0
2022-11-02T06:34:42.745Z,0
2022-11-02T06:35:42.718Z,0
2022-11-02T06:36:42.724Z,0.9
2022-11-02T06:37:42.751Z,0
2022-11-02T06:38:42.755Z,0
2022-11-02T06:39:42.746Z,0
2022-11-02T06:40:42.770Z,0
2022-11-02T06:41:42.762Z,0
2022-11-02T06:42:50.544Z,0
2022-11-02T06:43:42.742Z,0
2022-11-02T06:44:42.777Z,0
2022-11-02T06:45:42.760Z,0
2022-11-02T06:46:42.754Z,0
2022-11-02T06:47:42.768Z,0
2022-11-02T06:48:42.761Z,0
2022-11-02T06:49:42.767Z,0
2022-11-02T06:50:42.753Z,0
2022-11-02T06:51:42.766Z,0
2022-11-02T06:52:42.768Z,0
2022-11-02T06:53:42.764Z,0
2022-11-02T06:54:42.762Z,0
2022-11-02T06:55:42.894Z,0
2022-11-02T06:56:42.770Z,0
2022-11-02T06:57:42.796Z,0
2022-11-02T06:58:42.779Z,0
2022-11-02T06:59:42.762Z,0
2022-11-02T07:00:42.941Z,0
2022-11-02T07:01:42.935Z,0
2022-11-02T07:02:42.773Z,0.8
2022-11-02T07:03:42.778Z,0.9
2022-11-02T07:04:42.772Z,1.2
2022-11-02T07:05:42.773Z,0.8
2022-11-02T07:06:42.788Z,0.6
2022-11-02T07:07:42.790Z,0
2022-11-02T07:08:42.799Z,0
2022-11-02T07:09:42.788Z,1
2022-11-02T07:10:42.795Z,0.7
2022-11-02T07:11:42.800Z,0.8
2022-11-02T07:12:42.828Z,1.1
2022-11-02T07:13:42.813Z,0.5
2022-11-02T07:14:42.802Z,0.6
2022-11-02T07:15:42.822Z,0
2022-11-02T07:16:42.840Z,0
2022-11-02T07:17:42.836Z,0.5
2022-11-02T07:18:42.821Z,0
2022-11-02T07:19:42.809Z,0
2022-11-02T07:20:42.815Z,0
2022-11-02T07:21:45.020Z,0
2022-11-02T07:22:42.832Z,0.8
2022-11-02T07:23:42.846Z,1.2
2022-11-02T07:24:42.873Z,0
2022-11-02T07:25:42.830Z,0.5
2022-11-02T07:26:42.867Z,0
2022-11-02T07:27:42.821Z,0.5
2022-11-02T07:28:42.851Z,0.5
2022-11-02T07:29:42.864Z,0
2022-11-02T07:30:42.856Z,0.5
2022-11-02T07:31:42.864Z,0
2022-11-02T07:32:42.889Z,0
2022-11-02T07:33:42.847Z,0.7
2022-11-02T07:34:42.871Z,0
2022-11-02T07:35:42.855Z,0
2022-11-02T07:36:42.871Z,0.8
2022-11-02T07:37:42.885Z,0
2022-11-02T07:38:42.904Z,0
2022-11-02T07:39:42.896Z,0
2022-11-02T07:40:42.902Z,0.5
2022-11-02T07:41:44.817Z,0.6
2022-11-02T07:42:42.891Z,0
2022-11-02T07:43:43.194Z,0
2022-11-02T07:44:42.883Z,0
2022-11-02T07:45:42.901Z,1
2022-11-02T07:46:42.913Z,0.5
2022-11-02T07:47:42.926Z,0
2022-11-02T07:48:42.909Z,0.6
2022-11-02T07:49:42.911Z,0.5
2022-11-02T07:50:42.906Z,0
2022-11-02T07:51:42.930Z,0
2022-11-02T07:52:42.926Z,0
2022-11-02T07:53:42.917Z,0.8
2022-11-02T07:54:44.647Z,0.7
2022-11-02T07:55:42.946Z,0
2022-11-02T07:56:42.947Z,0.8
2022-11-02T07:57:42.920Z,0
2022-11-02T07:58:42.918Z,0
2022-11-02T07:59:42.915Z,0
2022-11-02T08:00:42.966Z,0
2022-11-02T08:01:42.961Z,0
2022-11-02T08:02:43.152Z,0.7
2022-11-02T08:03:42.941Z,1
2022-11-02T08:04:44.044Z,0
2022-11-02T08:05:42.957Z,0.9
2022-11-02T08:06:42.945Z,0.6
2022-11-02T08:07:42.946Z,1.8
2022-11-02T08:08:42.958Z,0.7
2022-11-02T08:09:42.946Z,0
2022-11-02T08:10:42.950Z,0.8
2022-11-02T08:11:42.998Z,0
2022-11-02T08:12:43.003Z,1
2022-11-02T08:13:42.973Z,2.4
2022-11-02T08:14:42.995Z,1.9
2022-11-02T08:15:42.972Z,1.8
2022-11-02T08:16:42.993Z,0.7
2022-11-02T08:17:42.999Z,1.2
2022-11-02T08:18:43.014Z,1.6
2022-11-02T08:19:43.025Z,0
2022-11-02T08:20:43.001Z,1
2022-11-02T08:21:43.037Z,0
2022-11-02T08:22:43.026Z,0.7
2022-11-02T08:23:43.013Z,0
2022-11-02T08:24:43.020Z,2.1
2022-11-02T08:25:42.992Z,3
2022-11-02T08:26:44.905Z,1.1
2022-11-02T08:27:42.993Z,1.1
2022-11-02T08:28:43.002Z,1.6
2022-11-02T08:29:43.024Z,0.5
2022-11-02T08:30:43.048Z,2.6
2022-11-02T08:31:43.016Z,0.6
2022-11-02T08:32:43.044Z,0.8
2022-11-02T08:33:43.039Z,2.4
2022-11-02T08:34:43.051Z,0
2022-11-02T08:35:43.053Z,2.1
2022-11-02T08:36:43.091Z,1
2022-11-02T08:37:43.074Z,0.7
2022-11-02T08:38:43.067Z,0.5
2022-11-02T08:39:43.038Z,0
2022-11-02T08:40:43.061Z,0.5
2022-11-02T08:41:43.059Z,0.5
2022-11-02T08:42:43.048Z,1.1
2022-11-02T08:43:43.051Z,1.8
2022-11-02T08:44:43.051Z,3
2022-11-02T08:46:13.044Z,0.5
2022-11-02T08:46:43.110Z,0.7
2022-11-02T08:47:43.061Z,1.8
2022-11-02T08:48:43.090Z,3.4
2022-11-02T08:49:43.064Z,2.6
2022-11-02T08:50:43.079Z,2.4
2022-11-02T08:51:43.074Z,2.6
2022-11-02T08:52:43.079Z,2.4
2022-11-02T08:53:47.212Z,2.7
2022-11-02T08:54:43.074Z,2.9
2022-11-02T08:55:43.077Z,1.2
2022-11-02T08:56:43.077Z,0.9
2022-11-02T08:57:43.073Z,1.5
2022-11-02T08:58:43.097Z,0.8
2022-11-02T08:59:43.087Z,2.3
2022-11-02T09:00:43.101Z,2.6
2022-11-02T09:01:43.254Z,2.6
2022-11-02T09:02:43.139Z,0
2022-11-02T09:03:43.094Z,2.7
2022-11-02T09:04:43.088Z,2
2022-11-02T09:05:44.107Z,0
2022-11-02T09:06:43.104Z,2.4
2022-11-02T09:07:43.102Z,2.2
2022-11-02T09:08:43.114Z,0
2022-11-02T09:09:43.142Z,0
2022-11-02T09:10:43.130Z,2.1
2022-11-02T09:11:43.130Z,2.2
2022-11-02T09:12:43.135Z,2.6
2022-11-02T09:13:43.192Z,0
2022-11-02T09:14:43.139Z,0.7
2022-11-02T09:15:43.150Z,3.1
2022-11-02T09:16:43.130Z,1
2022-11-02T09:17:43.122Z,1.9
2022-11-02T09:18:43.160Z,1.8
2022-11-02T09:19:43.153Z,0.9
2022-11-02T09:20:43.167Z,1.8
2022-11-02T09:21:43.136Z,3.4
2022-11-02T09:22:43.138Z,1.1
2022-11-02T09:23:43.147Z,2.6
2022-11-02T09:24:43.152Z,0.6
2022-11-02T09:25:43.155Z,2.4
2022-11-02T09:26:43.144Z,1.5
2022-11-02T09:27:43.140Z,2.4
2022-11-02T09:28:43.151Z,2.2
2022-11-02T09:29:43.162Z,1.8
2022-11-02T09:30:43.184Z,3.2
2022-11-02T09:31:43.189Z,0.5
2022-11-02T09:32:43.160Z,1.2
2022-11-02T09:33:43.171Z,0.8
2022-11-02T09:34:43.176Z,0.8
2022-11-02T09:35:43.153Z,0.9
2022-11-02T09:36:43.167Z,0.6
2022-11-02T09:37:45.804Z,0.8
2022-11-02T09:38:43.161Z,0.6
2022-11-02T09:39:43.160Z,2.4
2022-11-02T09:40:43.196Z,0.8
2022-11-02T09:41:43.244Z,0.9
2022-11-02T09:42:43.177Z,1.1
2022-11-02T09:43:43.177Z,0
2022-11-02T09:44:43.182Z,1.4
2022-11-02T09:45:43.189Z,0
2022-11-02T09:46:43.227Z,0.8
2022-11-02T09:48:15.177Z,1
2022-11-02T09:48:43.206Z,0
2022-11-02T09:49:43.213Z,0
2022-11-02T09:50:43.210Z,0
2022-11-02T09:51:43.219Z,0
2022-11-02T09:52:43.220Z,0.8
2022-11-02T09:53:43.208Z,0
2022-11-02T09:54:43.199Z,0
2022-11-02T09:55:43.225Z,1
2022-11-02T09:56:43.226Z,0.7
2022-11-02T09:57:43.252Z,0
2022-11-02T09:58:43.230Z,0
2022-11-02T09:59:43.222Z,0.6
2022-11-02T10:00:43.235Z,0.5
2022-11-02T10:01:43.281Z,0.8
2022-11-02T10:02:43.265Z,2.6
2022-11-02T10:03:43.240Z,2.6
2022-11-02T10:04:43.229Z,0.9
2022-11-02T10:05:43.247Z,2.1
2022-11-02T10:06:43.249Z,2.5
2022-11-02T10:07:43.249Z,2.4
2022-11-02T10:08:43.247Z,1.9
2022-11-02T10:09:43.244Z,0.5
2022-11-02T10:10:43.264Z,0
2022-11-02T10:11:43.308Z,0.5
2022-11-02T10:12:43.281Z,0
2022-11-02T10:13:43.284Z,0
2022-11-02T10:14:43.277Z,0
2022-11-02T10:15:43.291Z,0
2022-11-02T10:16:43.269Z,0
2022-11-02T10:17:43.278Z,1.9
2022-11-02T10:18:43.271Z,3.8
2022-11-02T10:19:43.280Z,0.9
2022-11-02T10:20:43.392Z,2.9
2022-11-02T10:21:43.273Z,2.9
2022-11-02T10:22:43.285Z,1
2022-11-02T10:23:43.273Z,1.1
2022-11-02T10:24:43.312Z,1.1
2022-11-02T10:25:43.298Z,4.4
2022-11-02T10:26:43.302Z,4.2
2022-11-02T10:27:43.349Z,2.4
2022-11-02T10:28:43.311Z,2.6
2022-11-02T10:29:43.359Z,2.5
2022-11-02T10:30:43.315Z,0.8
2022-11-02T10:31:43.309Z,1.5
2022-11-02T10:33:43.289Z,2.4
2022-11-02T10:34:43.293Z,1.2
2022-11-02T10:36:04.573Z,2.6
2022-11-02T10:36:43.302Z,3.2
2022-11-02T10:37:43.322Z,3.4
2022-11-02T10:38:43.309Z,0.8
2022-11-02T10:39:43.343Z,2.4
2022-11-02T10:40:43.348Z,1.8
2022-11-02T10:41:43.334Z,3.4
2022-11-02T10:42:43.342Z,2.4
2022-11-02T10:43:44.470Z,1.1
2022-11-02T10:44:43.327Z,2.7
2022-11-02T10:45:43.381Z,2.1
2022-11-02T10:46:43.345Z,2.2
2022-11-02T10:47:43.339Z,1.6
2022-11-02T10:48:43.346Z,2.9
2022-11-02T10:49:43.346Z,4.4
2022-11-02T10:50:43.389Z,4.4
2022-11-02T10:51:43.373Z,3.6
2022-11-02T10:52:43.374Z,2.1
2022-11-02T10:53:43.763Z,1.1
2022-11-02T10:54:43.373Z,2.4
2022-11-02T10:55:43.470Z,0.9
2022-11-02T10:56:43.375Z,2.4
2022-11-02T10:57:43.373Z,3
2022-11-02T10:58:43.372Z,2.6
2022-11-02T10:59:43.367Z,1.5
2022-11-02T11:00:43.403Z,1.5
2022-11-02T11:01:43.411Z,0.9
2022-11-02T11:02:43.378Z,0
2022-11-02T11:03:43.380Z,1.5
2022-11-02T11:04:43.397Z,1.2
2022-11-02T11:05:43.393Z,1.2
2022-11-02T11:06:43.393Z,0.7
2022-11-02T11:07:43.535Z,1
2022-11-02T11:08:43.391Z,1.6
2022-11-02T11:09:46.597Z,3.5
2022-11-02T11:10:43.392Z,2.6
2022-11-02T11:11:43.404Z,5.3
2022-11-02T11:12:43.441Z,2.5
2022-11-02T11:15:46.646Z,3.4
2022-11-02T11:16:43.471Z,4
2022-11-02T11:19:43.410Z,2.7
2022-11-02T11:20:43.428Z,1.3
2022-11-02T11:21:43.494Z,3.8
2022-11-02T11:22:43.459Z,1.8
2022-11-02T11:23:43.455Z,3.2
2022-11-02T11:24:43.496Z,3
2022-11-02T11:25:43.462Z,4.4
2022-11-02T11:26:43.467Z,2.4
2022-11-02T11:27:43.453Z,2.4
2022-11-02T11:28:43.443Z,3.1
2022-11-02T11:29:43.451Z,4.8
2022-11-02T11:30:59.286Z,2.5
2022-11-02T11:31:43.463Z,2.4
2022-11-02T11:32:43.442Z,1.5
2022-11-02T11:33:43.522Z,2.4
2022-11-02T11:34:43.464Z,2.5
2022-11-02T11:35:43.514Z,0
2022-11-02T11:36:43.483Z,1.3
2022-11-02T11:37:43.488Z,2.9
2022-11-02T11:38:43.486Z,3.4
2022-11-02T11:39:43.488Z,4.6
2022-11-02T11:40:43.487Z,4.2
2022-11-02T11:41:43.513Z,2.2
2022-11-02T11:42:43.485Z,4
2022-11-02T11:43:43.480Z,2.5
2022-11-02T11:44:43.500Z,4.8
2022-11-02T11:45:43.492Z,2.4
2022-11-02T11:46:43.488Z,4.4
2022-11-02T11:47:43.498Z,4.4
2022-11-02T11:48:43.498Z,4.8
2022-11-02T11:50:43.516Z,2.2
2022-11-02T11:51:43.501Z,5
2022-11-02T11:52:43.533Z,4.2
2022-11-02T11:53:43.539Z,5.1
2022-11-02T11:54:43.531Z,3.4
2022-11-02T11:55:43.545Z,2.7
2022-11-02T11:56:43.543Z,3.6
2022-11-02T11:57:43.535Z,5.6
2022-11-02T11:58:46.567Z,3.5
2022-11-02T11:59:43.536Z,4.4
2022-11-02T12:00:43.543Z,2.6
2022-11-02T12:01:43.663Z,4.8
2022-11-02T12:02:44.801Z,2.5
2022-11-02T12:03:43.603Z,0.5
2022-11-02T12:04:43.579Z,1.1
2022-11-02T12:05:43.598Z,4.8
2022-11-02T12:06:43.580Z,0.8
2022-11-02T12:07:43.583Z,0.8
2022-11-02T12:08:43.597Z,2.9
2022-11-02T12:09:43.602Z,2.4
2022-11-02T12:10:43.621Z,2.1
2022-11-02T12:11:43.570Z,3.4
2022-11-02T12:12:43.596Z,1.5
2022-11-02T12:13:43.580Z,1.2
2022-11-02T12:14:43.580Z,2.9
2022-11-02T12:15:43.596Z,2.9
2022-11-02T12:16:43.583Z,2.4
2022-11-02T12:17:43.596Z,1.2
2022-11-02T12:18:43.600Z,0.8
2022-11-02T12:19:43.632Z,0.5
2022-11-02T12:20:43.638Z,3.2
2022-11-02T12:21:43.644Z,3.5
2022-11-02T12:22:43.630Z,3
2022-11-02T12:23:43.638Z,2.4
2022-11-02T12:24:43.615Z,2.6
2022-11-02T12:25:43.635Z,1.8
2022-11-02T12:26:43.620Z,1.6
2022-11-02T12:27:43.644Z,3.8
2022-11-02T12:28:43.625Z,2.6
2022-11-02T12:29:43.617Z,2.2
2022-11-02T12:30:43.627Z,2.2
2022-11-02T12:31:43.656Z,0.5
2022-11-02T12:32:43.667Z,1.2
2022-11-02T12:33:43.666Z,3.1
2022-11-02T12:34:46.480Z,1.5
2022-11-02T12:35:43.648Z,0.5
2022-11-02T12:37:03.716Z,2.4
2022-11-02T12:37:43.703Z,2.3
2022-11-02T12:38:43.693Z,2.5
2022-11-02T12:39:43.676Z,2.4
2022-11-02T12:40:43.685Z,1.3
2022-11-02T12:41:43.740Z,2.5
2022-11-02T12:42:43.660Z,3.4
2022-11-02T12:43:43.689Z,2.4
2022-11-02T12:44:43.661Z,3
2022-11-02T12:45:43.702Z,2.6
2022-11-02T12:46:48.647Z,2
2022-11-02T12:47:43.705Z,0.8
2022-11-02T12:48:43.678Z,0.9
2022-11-02T12:49:43.701Z,2.4
2022-11-02T12:50:43.765Z,1.8
2022-11-02T12:51:43.694Z,3.6
2022-11-02T12:52:43.693Z,2.4
2022-11-02T12:53:43.713Z,4.6
2022-11-02T12:54:43.683Z,1.2
2022-11-02T12:55:43.694Z,3.1
2022-11-02T12:56:43.694Z,2.9
2022-11-02T12:57:43.695Z,2.5
2022-11-02T12:58:43.696Z,4.2
2022-11-02T12:59:43.712Z,2.9
2022-11-02T13:00:43.792Z,1.9
2022-11-02T13:01:43.927Z,2.6
2022-11-02T13:02:43.715Z,4
2022-11-02T13:03:43.744Z,4.4
2022-11-02T13:04:43.727Z,4
2022-11-02T13:05:43.733Z,3
2022-11-02T13:06:43.740Z,1.8
2022-11-02T13:07:43.751Z,3.1
2022-11-02T13:08:43.759Z,3.1
2022-11-02T13:09:46.415Z,5.3
2022-11-02T13:10:43.756Z,2.4
2022-11-02T13:11:43.749Z,3.4
2022-11-02T13:12:43.777Z,2.9
2022-11-02T13:13:43.768Z,1.5
2022-11-02T13:14:43.773Z,2.3
2022-11-02T13:15:43.803Z,3.8
2022-11-02T13:16:43.774Z,3
2022-11-02T13:17:43.771Z,2.4
2022-11-02T13:18:43.788Z,1.2
2022-11-02T13:19:43.823Z,2.2
2022-11-02T13:20:43.786Z,3.5
2022-11-02T13:21:44.380Z,4.4
2022-11-02T13:22:43.810Z,1.1
2022-11-02T13:23:43.765Z,3
2022-11-02T13:24:43.766Z,3
2022-11-02T13:25:43.810Z,3.1
2022-11-02T13:26:43.798Z,3.4
2022-11-02T13:27:43.806Z,1.6
2022-11-02T13:28:43.790Z,4.6
2022-11-02T13:29:43.781Z,3
2022-11-02T13:30:43.804Z,3.4
2022-11-02T13:31:43.805Z,2.5
2022-11-02T13:32:43.779Z,2.5
2022-11-02T13:33:43.797Z,3.5
2022-11-02T13:34:43.784Z,4.6
2022-11-02T13:35:43.824Z,3.4
2022-11-02T13:36:43.818Z,4
2022-11-02T13:37:43.812Z,2.4
2022-11-02T13:38:43.810Z,2.4
2022-11-02T13:39:43.817Z,3.5
2022-11-02T13:40:43.820Z,2.7
2022-11-02T13:41:43.837Z,3.4
2022-11-02T13:42:43.842Z,2.4
2022-11-02T13:43:43.829Z,3.1
2022-11-02T13:44:43.859Z,4.2
2022-11-02T13:45:43.837Z,3.8
2022-11-02T13:46:43.821Z,3.6
2022-11-02T13:47:43.847Z,5.1
2022-11-02T13:48:43.811Z,1
2022-11-02T13:49:43.836Z,0.7
2022-11-02T13:50:43.827Z,2.5
2022-11-02T13:51:43.842Z,2.7
2022-11-02T13:52:43.827Z,1
2022-11-02T13:53:43.818Z,2.2
2022-11-02T13:54:43.850Z,3.1
2022-11-02T13:55:45.511Z,1.8
2022-11-02T13:56:43.830Z,1.1
2022-11-02T13:57:43.856Z,3
2022-11-02T13:58:43.843Z,2.4
2022-11-02T13:59:43.879Z,4.6
2022-11-02T14:00:43.873Z,1.6
2022-11-02T14:01:43.947Z,2.2
2022-11-02T14:02:44.038Z,2.7
2022-11-02T14:03:43.881Z,2.7
2022-11-02T14:04:43.846Z,2.1
2022-11-02T14:05:43.857Z,2.4
2022-11-02T14:06:43.848Z,4.4
2022-11-02T14:07:43.899Z,2.7
2022-11-02T14:08:43.882Z,4.4
2022-11-02T14:09:43.893Z,3.4
2022-11-02T14:10:43.918Z,3.4
2022-11-02T14:11:43.889Z,1.8
2022-11-02T14:12:43.894Z,0.8
2022-11-02T14:13:43.920Z,0.9
2022-11-02T14:14:43.901Z,0.6
2022-11-02T14:15:43.898Z,1.9
2022-11-02T14:16:43.884Z,2.4
2022-11-02T14:17:43.888Z,0.7
2022-11-02T14:18:43.902Z,1.6
2022-11-02T14:19:43.903Z,1.5
2022-11-02T14:20:43.902Z,0.5
2022-11-02T14:21:43.886Z,1.8
2022-11-02T14:22:43.891Z,2.4
2022-11-02T14:23:43.888Z,1.9
2022-11-02T14:24:43.939Z,3.1